sensor_id;sensor_type;location;lat;lon;timestamp;pressure;altitude;pressure_sealevel;temperature;humidity
15529;BME280;7866;52.280;9.500;2023-02-11T00:02:55;101852.78;;;6.12;82.22
15529;BME280;7866;52.280;9.500;2023-02-11T00:07:57;101867.38;;;6.20;81.60
15529;BME280;7866;52.280;9.500;2023-02-11T00:13:00;101845.78;;;6.11;81.92
15529;BME280;7866;52.280;9.500;2023-02-11T00:18:01;101833.22;;;6.13;81.92
15529;BME280;7866;52.280;9.500;2023-02-11T00:23:03;101852.13;;;6.09;83.58
15529;BME280;7866;52.280;9.500;2023-02-11T00:28:06;101858.94;;;6.13;83.53
15529;BME280;7866;52.280;9.500;2023-02-11T00:33:08;101858.09;;;6.12;82.53
15529;BME280;7866;52.280;9.500;2023-02-11T00:38:09;101850.31;;;6.09;84.36
15529;BME280;7866;52.280;9.500;2023-02-11T00:43:12;101831.19;;;6.04;83.67
15529;BME280;7866;52.280;9.500;2023-02-11T00:48:14;101842.78;;;6.03;87.03
15529;BME280;7866;52.280;9.500;2023-02-11T00:53:16;101880.84;;;6.04;87.50
15529;BME280;7866;52.280;9.500;2023-02-11T00:58:19;101887.41;;;5.98;88.04
15529;BME280;7866;52.280;9.500;2023-02-11T01:03:22;101878.59;;;5.98;89.11
15529;BME280;7866;52.280;9.500;2023-02-11T01:08:24;101878.50;;;5.99;88.79
15529;BME280;7866;52.280;9.500;2023-02-11T01:13:28;101875.28;;;5.94;90.28
15529;BME280;7866;52.280;9.500;2023-02-11T01:18:30;101870.91;;;5.93;89.72
15529;BME280;7866;52.280;9.500;2023-02-11T01:23:32;101871.00;;;5.91;91.41
15529;BME280;7866;52.280;9.500;2023-02-11T01:28:35;101859.31;;;5.94;91.92
15529;BME280;7866;52.280;9.500;2023-02-11T01:33:37;101855.94;;;5.92;90.85
15529;BME280;7866;52.280;9.500;2023-02-11T01:38:38;101856.66;;;5.94;89.74
15529;BME280;7866;52.280;9.500;2023-02-11T01:43:43;101862.75;;;5.96;91.17
15529;BME280;7866;52.280;9.500;2023-02-11T01:48:47;101830.84;;;5.96;90.89
15529;BME280;7866;52.280;9.500;2023-02-11T01:53:51;101832.66;;;5.96;92.46
15529;BME280;7866;52.280;9.500;2023-02-11T01:59:17;101832.72;;;5.94;93.47
15529;BME280;7866;52.280;9.500;2023-02-11T02:04:22;101813.19;;;5.95;94.05
15529;BME280;7866;52.280;9.500;2023-02-11T02:09:29;101807.44;;;6.01;93.90
15529;BME280;7866;52.280;9.500;2023-02-11T02:14:38;101802.13;;;6.01;94.67
15529;BME280;7866;52.280;9.500;2023-02-11T02:20:02;101793.28;;;6.01;93.94
15529;BME280;7866;52.280;9.500;2023-02-11T02:25:21;101790.31;;;6.05;93.52
15529;BME280;7866;52.280;9.500;2023-02-11T02:30:44;101782.34;;;6.05;94.31
15529;BME280;7866;52.280;9.500;2023-02-11T02:35:57;101790.53;;;6.02;94.72
15529;BME280;7866;52.280;9.500;2023-02-11T02:41:05;101792.13;;;6.05;95.54
15529;BME280;7866;52.280;9.500;2023-02-11T02:46:10;101780.84;;;6.14;95.25
15529;BME280;7866;52.280;9.500;2023-02-11T02:51:29;101761.38;;;6.13;93.84
15529;BME280;7866;52.280;9.500;2023-02-11T02:56:39;101768.44;;;6.14;93.97
15529;BME280;7866;52.280;9.500;2023-02-11T03:01:50;101764.69;;;6.17;95.19
15529;BME280;7866;52.280;9.500;2023-02-11T03:07:02;101750.88;;;6.12;94.58
15529;BME280;7866;52.280;9.500;2023-02-11T03:12:10;101741.06;;;6.12;94.55
15529;BME280;7866;52.280;9.500;2023-02-11T03:17:13;101730.03;;;6.19;94.18
15529;BME280;7866;52.280;9.500;2023-02-11T03:22:21;101727.38;;;6.19;94.67
15529;BME280;7866;52.280;9.500;2023-02-11T03:27:29;101731.72;;;6.20;96.03
15529;BME280;7866;52.280;9.500;2023-02-11T03:32:35;101721.28;;;6.16;95.79
15529;BME280;7866;52.280;9.500;2023-02-11T03:37:44;101713.94;;;6.20;95.76
15529;BME280;7866;52.280;9.500;2023-02-11T03:42:49;101727.47;;;6.17;96.03
15529;BME280;7866;52.280;9.500;2023-02-11T03:47:54;101729.72;;;6.23;97.16
15529;BME280;7866;52.280;9.500;2023-02-11T03:53:00;101717.78;;;6.29;96.15
15529;BME280;7866;52.280;9.500;2023-02-11T03:58:02;101739.19;;;6.27;95.80
15529;BME280;7866;52.280;9.500;2023-02-11T04:03:05;101723.84;;;6.31;95.96
15529;BME280;7866;52.280;9.500;2023-02-11T04:08:08;101730.22;;;6.28;95.92
15529;BME280;7866;52.280;9.500;2023-02-11T04:13:09;101732.13;;;6.26;96.57
15529;BME280;7866;52.280;9.500;2023-02-11T04:18:11;101738.53;;;6.24;96.42
15529;BME280;7866;52.280;9.500;2023-02-11T04:23:14;101745.66;;;6.23;97.54
15529;BME280;7866;52.280;9.500;2023-02-11T04:28:15;101745.75;;;6.22;97.70
15529;BME280;7866;52.280;9.500;2023-02-11T04:33:17;101740.66;;;6.19;97.98
15529;BME280;7866;52.280;9.500;2023-02-11T04:38:20;101723.75;;;6.20;98.97
15529;BME280;7866;52.280;9.500;2023-02-11T04:43:23;101721.09;;;6.20;99.63
15529;BME280;7866;52.280;9.500;2023-02-11T04:48:25;101741.19;;;6.24;99.20
15529;BME280;7866;52.280;9.500;2023-02-11T04:53:28;101735.53;;;6.28;98.98
15529;BME280;7866;52.280;9.500;2023-02-11T04:58:30;101732.75;;;6.30;98.87
15529;BME280;7866;52.280;9.500;2023-02-11T05:03:31;101742.56;;;6.29;98.74
15529;BME280;7866;52.280;9.500;2023-02-11T05:08:34;101727.34;;;6.31;98.40
15529;BME280;7866;52.280;9.500;2023-02-11T05:13:36;101726.59;;;6.29;98.95
15529;BME280;7866;52.280;9.500;2023-02-11T05:18:37;101714.06;;;6.31;99.43
15529;BME280;7866;52.280;9.500;2023-02-11T05:23:41;101719.25;;;6.33;99.42
15529;BME280;7866;52.280;9.500;2023-02-11T05:28:43;101720.75;;;6.37;99.51
15529;BME280;7866;52.280;9.500;2023-02-11T05:33:44;101725.22;;;6.36;99.11
15529;BME280;7866;52.280;9.500;2023-02-11T05:38:47;101726.69;;;6.40;99.01
15529;BME280;7866;52.280;9.500;2023-02-11T05:43:50;101719.47;;;6.43;99.02
15529;BME280;7866;52.280;9.500;2023-02-11T05:48:51;101723.63;;;6.47;97.85
15529;BME280;7866;52.280;9.500;2023-02-11T05:53:54;101741.50;;;6.45;97.32
15529;BME280;7866;52.280;9.500;2023-02-11T05:58:57;101726.16;;;6.48;97.34
15529;BME280;7866;52.280;9.500;2023-02-11T06:03:59;101708.72;;;6.44;96.26
15529;BME280;7866;52.280;9.500;2023-02-11T06:09:02;101715.53;;;6.48;96.46
15529;BME280;7866;52.280;9.500;2023-02-11T06:14:05;101722.75;;;6.46;96.80
15529;BME280;7866;52.280;9.500;2023-02-11T06:19:07;101725.19;;;6.49;96.71
15529;BME280;7866;52.280;9.500;2023-02-11T06:24:09;101725.97;;;6.51;96.51
15529;BME280;7866;52.280;9.500;2023-02-11T06:29:11;101741.81;;;6.53;96.47
15529;BME280;7866;52.280;9.500;2023-02-11T06:34:13;101730.19;;;6.54;96.42
15529;BME280;7866;52.280;9.500;2023-02-11T06:39:16;101729.13;;;6.56;95.92
15529;BME280;7866;52.280;9.500;2023-02-11T06:44:17;101732.63;;;6.57;96.18
15529;BME280;7866;52.280;9.500;2023-02-11T06:49:19;101727.31;;;6.57;96.11
15529;BME280;7866;52.280;9.500;2023-02-11T06:54:22;101734.25;;;6.59;95.31
15529;BME280;7866;52.280;9.500;2023-02-11T06:59:24;101735.09;;;6.60;95.60
15529;BME280;7866;52.280;9.500;2023-02-11T07:04:25;101736.91;;;6.59;95.40
15529;BME280;7866;52.280;9.500;2023-02-11T07:09:28;101731.66;;;6.58;95.62
15529;BME280;7866;52.280;9.500;2023-02-11T07:14:30;101738.47;;;6.62;95.79
15529;BME280;7866;52.280;9.500;2023-02-11T07:19:31;101737.41;;;6.64;96.02
15529;BME280;7866;52.280;9.500;2023-02-11T07:24:34;101751.38;;;6.68;95.10
15529;BME280;7866;52.280;9.500;2023-02-11T07:29:36;101746.16;;;6.66;95.66
15529;BME280;7866;52.280;9.500;2023-02-11T07:34:38;101745.41;;;6.64;95.55
15529;BME280;7866;52.280;9.500;2023-02-11T07:39:40;101754.75;;;6.70;95.25
15529;BME280;7866;52.280;9.500;2023-02-11T07:44:42;101764.13;;;6.76;95.37
15529;BME280;7866;52.280;9.500;2023-02-11T07:49:44;101746.56;;;6.73;95.81
15529;BME280;7866;52.280;9.500;2023-02-11T07:54:48;101770.94;;;6.80;95.18
15529;BME280;7866;52.280;9.500;2023-02-11T07:59:50;101781.72;;;6.78;94.55
15529;BME280;7866;52.280;9.500;2023-02-11T08:04:51;101767.72;;;6.87;94.30
15529;BME280;7866;52.280;9.500;2023-02-11T08:09:54;101749.84;;;6.77;94.81
15529;BME280;7866;52.280;9.500;2023-02-11T08:14:56;101760.59;;;6.88;95.36
15529;BME280;7866;52.280;9.500;2023-02-11T08:19:57;101764.22;;;6.87;94.87
15529;BME280;7866;52.280;9.500;2023-02-11T08:25:00;101762.28;;;6.89;94.69
15529;BME280;7866;52.280;9.500;2023-02-11T08:30:03;101765.72;;;6.91;95.11
15529;BME280;7866;52.280;9.500;2023-02-11T08:35:05;101761.84;;;6.95;94.56
15529;BME280;7866;52.280;9.500;2023-02-11T08:40:09;101791.44;;;7.03;94.46
15529;BME280;7866;52.280;9.500;2023-02-11T08:45:11;101788.13;;;7.12;93.63
15529;BME280;7866;52.280;9.500;2023-02-11T08:50:12;101789.09;;;7.11;93.77
15529;BME280;7866;52.280;9.500;2023-02-11T08:55:15;101773.41;;;7.20;93.02
15529;BME280;7866;52.280;9.500;2023-02-11T09:00:17;101790.84;;;7.24;93.04
15529;BME280;7866;52.280;9.500;2023-02-11T09:05:19;101789.25;;;7.21;93.11
15529;BME280;7866;52.280;9.500;2023-02-11T09:10:23;101798.97;;;7.22;93.76
15529;BME280;7866;52.280;9.500;2023-02-11T09:15:24;101809.59;;;7.35;93.35
15529;BME280;7866;52.280;9.500;2023-02-11T09:20:26;101822.06;;;7.34;92.63
15529;BME280;7866;52.280;9.500;2023-02-11T09:25:29;101818.53;;;7.34;92.98
15529;BME280;7866;52.280;9.500;2023-02-11T09:30:31;101818.59;;;7.45;92.66
15529;BME280;7866;52.280;9.500;2023-02-11T09:35:32;101808.91;;;7.44;92.55
15529;BME280;7866;52.280;9.500;2023-02-11T09:40:36;101815.72;;;7.48;92.60
15529;BME280;7866;52.280;9.500;2023-02-11T09:45:42;101828.31;;;7.46;93.05
15529;BME280;7866;52.280;9.500;2023-02-11T09:50:46;101828.81;;;7.51;93.10
15529;BME280;7866;52.280;9.500;2023-02-11T09:55:53;101831.56;;;7.62;92.48
15529;BME280;7866;52.280;9.500;2023-02-11T10:01:02;101843.16;;;7.61;92.58
15529;BME280;7866;52.280;9.500;2023-02-11T10:06:20;101857.34;;;7.62;92.34
15529;BME280;7866;52.280;9.500;2023-02-11T10:11:30;101869.81;;;7.61;93.41
15529;BME280;7866;52.280;9.500;2023-02-11T10:16:49;101873.75;;;7.69;93.62
15529;BME280;7866;52.280;9.500;2023-02-11T10:22:05;101853.19;;;7.82;93.41
15529;BME280;7866;52.280;9.500;2023-02-11T10:27:15;101868.97;;;7.85;93.35
15529;BME280;7866;52.280;9.500;2023-02-11T10:32:28;101876.25;;;8.07;92.82
15529;BME280;7866;52.280;9.500;2023-02-11T10:37:32;101874.56;;;8.06;93.13
15529;BME280;7866;52.280;9.500;2023-02-11T10:42:36;101876.59;;;8.02;92.52
15529;BME280;7866;52.280;9.500;2023-02-11T10:47:38;101888.25;;;8.12;93.10
15529;BME280;7866;52.280;9.500;2023-02-11T10:52:41;101899.59;;;8.27;92.30
15529;BME280;7866;52.280;9.500;2023-02-11T10:57:52;101890.22;;;8.22;91.55
15529;BME280;7866;52.280;9.500;2023-02-11T11:02:55;101878.84;;;8.20;92.04
15529;BME280;7866;52.280;9.500;2023-02-11T11:08:01;101887.75;;;8.07;92.67
15529;BME280;7866;52.280;9.500;2023-02-11T11:13:23;101883.19;;;8.21;92.00
15529;BME280;7866;52.280;9.500;2023-02-11T11:18:25;101894.06;;;8.06;92.62
15529;BME280;7866;52.280;9.500;2023-02-11T11:23:28;101879.59;;;7.98;93.25
15529;BME280;7866;52.280;9.500;2023-02-11T11:28:35;101887.63;;;8.09;93.21
15529;BME280;7866;52.280;9.500;2023-02-11T11:33:40;101894.16;;;8.05;93.84
15529;BME280;7866;52.280;9.500;2023-02-11T11:38:44;101907.97;;;7.99;93.90
15529;BME280;7866;52.280;9.500;2023-02-11T11:43:55;101895.00;;;7.94;94.34
15529;BME280;7866;52.280;9.500;2023-02-11T11:49:04;101888.75;;;8.06;94.37
15529;BME280;7866;52.280;9.500;2023-02-11T11:54:11;101899.16;;;8.09;93.95
15529;BME280;7866;52.280;9.500;2023-02-11T11:59:15;101910.72;;;8.21;93.78
15529;BME280;7866;52.280;9.500;2023-02-11T12:04:25;101898.22;;;8.10;94.40
15529;BME280;7866;52.280;9.500;2023-02-11T12:09:36;101897.88;;;8.15;95.19
15529;BME280;7866;52.280;9.500;2023-02-11T12:14:48;101890.84;;;8.14;94.80
15529;BME280;7866;52.280;9.500;2023-02-11T12:20:04;101873.84;;;8.15;95.42
15529;BME280;7866;52.280;9.500;2023-02-11T12:25:26;101877.22;;;8.06;95.34
15529;BME280;7866;52.280;9.500;2023-02-11T12:30:44;101901.50;;;8.14;94.85
15529;BME280;7866;52.280;9.500;2023-02-11T12:35:55;101894.09;;;8.18;95.21
15529;BME280;7866;52.280;9.500;2023-02-11T12:41:10;101898.94;;;8.12;94.71
15529;BME280;7866;52.280;9.500;2023-02-11T12:46:31;101887.72;;;8.31;94.42
15529;BME280;7866;52.280;9.500;2023-02-11T12:51:46;101904.09;;;8.27;94.61
15529;BME280;7866;52.280;9.500;2023-02-11T12:56:56;101889.91;;;8.26;95.04
15529;BME280;7866;52.280;9.500;2023-02-11T13:02:10;101894.84;;;8.44;94.67
15529;BME280;7866;52.280;9.500;2023-02-11T13:07:16;101902.22;;;8.40;94.21
15529;BME280;7866;52.280;9.500;2023-02-11T13:12:20;101898.19;;;8.34;94.91
15529;BME280;7866;52.280;9.500;2023-02-11T13:17:46;101897.34;;;8.34;96.03
15529;BME280;7866;52.280;9.500;2023-02-11T13:22:55;101902.97;;;8.42;95.82
15529;BME280;7866;52.280;9.500;2023-02-11T13:28:09;101896.69;;;8.54;95.21
15529;BME280;7866;52.280;9.500;2023-02-11T13:33:19;101903.88;;;8.54;94.29
15529;BME280;7866;52.280;9.500;2023-02-11T13:38:23;101901.16;;;8.43;94.72
15529;BME280;7866;52.280;9.500;2023-02-11T13:43:26;101893.16;;;8.43;94.93
15529;BME280;7866;52.280;9.500;2023-02-11T13:48:32;101907.84;;;8.48;95.49
15529;BME280;7866;52.280;9.500;2023-02-11T13:53:44;101911.13;;;8.52;94.69
15529;BME280;7866;52.280;9.500;2023-02-11T13:58:48;101910.72;;;8.45;95.31
15529;BME280;7866;52.280;9.500;2023-02-11T14:04:17;101908.44;;;8.52;96.46
15529;BME280;7866;52.280;9.500;2023-02-11T14:09:38;101913.56;;;8.55;96.57
15529;BME280;7866;52.280;9.500;2023-02-11T14:14:59;101910.44;;;8.72;95.64
15529;BME280;7866;52.280;9.500;2023-02-11T14:25:58;101910.41;;;8.61;96.22
15529;BME280;7866;52.280;9.500;2023-02-11T14:31:06;101908.94;;;8.57;96.92
15529;BME280;7866;52.280;9.500;2023-02-11T14:36:28;101915.88;;;8.59;96.63
15529;BME280;7866;52.280;9.500;2023-02-11T14:41:39;101921.34;;;8.58;96.86
15529;BME280;7866;52.280;9.500;2023-02-11T14:46:43;101924.34;;;8.53;96.80
15529;BME280;7866;52.280;9.500;2023-02-11T14:51:47;101933.94;;;8.56;96.44
15529;BME280;7866;52.280;9.500;2023-02-11T14:57:05;101923.88;;;8.59;96.33
15529;BME280;7866;52.280;9.500;2023-02-11T15:02:20;101924.28;;;8.66;95.36
15529;BME280;7866;52.280;9.500;2023-02-11T15:07:23;101927.06;;;8.64;96.16
15529;BME280;7866;52.280;9.500;2023-02-11T15:12:26;101951.31;;;8.61;95.99
15529;BME280;7866;52.280;9.500;2023-02-11T15:17:30;101953.97;;;8.61;96.10
15529;BME280;7866;52.280;9.500;2023-02-11T15:22:33;101962.75;;;8.63;96.04
15529;BME280;7866;52.280;9.500;2023-02-11T15:27:37;101974.50;;;8.61;96.41
15529;BME280;7866;52.280;9.500;2023-02-11T15:32:42;101972.94;;;8.58;96.58
15529;BME280;7866;52.280;9.500;2023-02-11T15:37:46;101963.94;;;8.59;96.59
15529;BME280;7866;52.280;9.500;2023-02-11T15:42:52;101970.97;;;8.60;96.96
15529;BME280;7866;52.280;9.500;2023-02-11T15:47:58;101973.31;;;8.65;96.56
15529;BME280;7866;52.280;9.500;2023-02-11T15:53:05;101969.78;;;8.64;96.19
15529;BME280;7866;52.280;9.500;2023-02-11T15:58:16;101982.16;;;8.66;96.06
15529;BME280;7866;52.280;9.500;2023-02-11T16:03:20;101982.91;;;8.68;96.01
15529;BME280;7866;52.280;9.500;2023-02-11T16:08:25;101993.59;;;8.68;95.87
15529;BME280;7866;52.280;9.500;2023-02-11T16:13:29;101984.97;;;8.64;96.14
15529;BME280;7866;52.280;9.500;2023-02-11T16:18:35;101975.13;;;8.64;95.66
15529;BME280;7866;52.280;9.500;2023-02-11T16:23:39;101982.28;;;8.64;95.48
15529;BME280;7866;52.280;9.500;2023-02-11T16:28:42;101987.41;;;8.67;95.58
15529;BME280;7866;52.280;9.500;2023-02-11T16:33:44;101991.91;;;8.67;96.27
15529;BME280;7866;52.280;9.500;2023-02-11T16:38:47;101996.53;;;8.76;95.32
15529;BME280;7866;52.280;9.500;2023-02-11T16:43:48;102000.91;;;8.77;95.15
15529;BME280;7866;52.280;9.500;2023-02-11T16:48:50;101998.84;;;8.80;94.81
15529;BME280;7866;52.280;9.500;2023-02-11T16:53:53;101996.81;;;8.84;94.65
15529;BME280;7866;52.280;9.500;2023-02-11T16:58:54;102000.22;;;8.86;94.41
15529;BME280;7866;52.280;9.500;2023-02-11T17:03:56;101997.41;;;8.87;93.92
15529;BME280;7866;52.280;9.500;2023-02-11T17:08:59;102003.84;;;8.85;94.16
15529;BME280;7866;52.280;9.500;2023-02-11T17:14:01;102006.50;;;8.85;94.34
15529;BME280;7866;52.280;9.500;2023-02-11T17:19:03;102015.78;;;8.92;93.90
15529;BME280;7866;52.280;9.500;2023-02-11T17:24:06;102005.31;;;8.89;94.11
15529;BME280;7866;52.280;9.500;2023-02-11T17:29:10;102004.38;;;8.90;93.67
15529;BME280;7866;52.280;9.500;2023-02-11T17:34:12;102019.91;;;8.96;94.01
15529;BME280;7866;52.280;9.500;2023-02-11T17:39:15;102029.41;;;9.00;93.19
15529;BME280;7866;52.280;9.500;2023-02-11T17:44:16;102026.63;;;9.02;93.91
15529;BME280;7866;52.280;9.500;2023-02-11T17:49:18;102032.81;;;9.02;93.52
15529;BME280;7866;52.280;9.500;2023-02-11T17:54:21;102044.13;;;9.06;93.18
15529;BME280;7866;52.280;9.500;2023-02-11T17:59:24;102058.06;;;9.09;93.03
15529;BME280;7866;52.280;9.500;2023-02-11T18:04:25;102062.69;;;9.07;93.52
15529;BME280;7866;52.280;9.500;2023-02-11T18:09:28;102071.69;;;9.06;93.30
15529;BME280;7866;52.280;9.500;2023-02-11T18:14:30;102085.69;;;9.10;92.79
15529;BME280;7866;52.280;9.500;2023-02-11T18:19:33;102095.50;;;9.09;92.71
15529;BME280;7866;52.280;9.500;2023-02-11T18:24:37;102099.16;;;9.08;93.60
15529;BME280;7866;52.280;9.500;2023-02-11T18:29:38;102101.81;;;9.08;93.17
15529;BME280;7866;52.280;9.500;2023-02-11T18:34:42;102105.97;;;9.12;93.43
15529;BME280;7866;52.280;9.500;2023-02-11T18:39:45;102113.34;;;9.09;92.25
15529;BME280;7866;52.280;9.500;2023-02-11T18:44:47;102128.66;;;9.07;93.13
15529;BME280;7866;52.280;9.500;2023-02-11T18:49:48;102117.00;;;9.08;93.07
15529;BME280;7866;52.280;9.500;2023-02-11T18:54:51;102113.63;;;9.06;93.05
15529;BME280;7866;52.280;9.500;2023-02-11T18:59:53;102117.00;;;9.08;93.00
15529;BME280;7866;52.280;9.500;2023-02-11T19:04:54;102122.22;;;9.09;92.87
15529;BME280;7866;52.280;9.500;2023-02-11T19:09:57;102116.88;;;9.09;93.04
15529;BME280;7866;52.280;9.500;2023-02-11T19:14:59;102127.69;;;9.08;92.85
15529;BME280;7866;52.280;9.500;2023-02-11T19:20:01;102117.00;;;9.08;92.42
15529;BME280;7866;52.280;9.500;2023-02-11T19:25:06;102121.72;;;9.04;92.73
15529;BME280;7866;52.280;9.500;2023-02-11T19:30:09;102110.81;;;9.07;92.45
15529;BME280;7866;52.280;9.500;2023-02-11T19:35:11;102116.38;;;9.04;92.82
15529;BME280;7866;52.280;9.500;2023-02-11T19:40:14;102130.50;;;9.06;92.37
15529;BME280;7866;52.280;9.500;2023-02-11T19:45:16;102125.59;;;9.00;93.16
15529;BME280;7866;52.280;9.500;2023-02-11T19:50:18;102152.53;;;8.97;94.44
15529;BME280;7866;52.280;9.500;2023-02-11T19:55:21;102143.56;;;8.98;94.30
15529;BME280;7866;52.280;9.500;2023-02-11T20:00:23;102132.25;;;8.95;94.58
15529;BME280;7866;52.280;9.500;2023-02-11T20:05:25;102140.50;;;8.92;95.35
15529;BME280;7866;52.280;9.500;2023-02-11T20:10:28;102149.09;;;8.84;96.51
15529;BME280;7866;52.280;9.500;2023-02-11T20:15:29;102156.38;;;8.82;97.59
15529;BME280;7866;52.280;9.500;2023-02-11T20:20:31;102157.31;;;8.81;98.28
15529;BME280;7866;52.280;9.500;2023-02-11T20:25:37;102161.59;;;8.83;98.03
15529;BME280;7866;52.280;9.500;2023-02-11T20:30:39;102164.59;;;8.79;98.96
15529;BME280;7866;52.280;9.500;2023-02-11T20:35:40;102164.59;;;8.79;98.92
15529;BME280;7866;52.280;9.500;2023-02-11T20:40:43;102160.25;;;8.78;99.44
15529;BME280;7866;52.280;9.500;2023-02-11T20:45:45;102169.53;;;8.72;100.00
15529;BME280;7866;52.280;9.500;2023-02-11T20:50:47;102177.75;;;8.69;100.00
15529;BME280;7866;52.280;9.500;2023-02-11T20:55:50;102172.75;;;8.64;100.00
15529;BME280;7866;52.280;9.500;2023-02-11T21:00:52;102180.03;;;8.62;100.00
15529;BME280;7866;52.280;9.500;2023-02-11T21:05:56;102165.94;;;8.60;100.00
15529;BME280;7866;52.280;9.500;2023-02-11T21:10:59;102163.25;;;8.60;100.00
15529;BME280;7866;52.280;9.500;2023-02-11T21:16:03;102182.41;;;8.54;100.00
15529;BME280;7866;52.280;9.500;2023-02-11T21:21:04;102197.97;;;8.60;100.00
15529;BME280;7866;52.280;9.500;2023-02-11T21:26:08;102197.97;;;8.60;100.00
15529;BME280;7866;52.280;9.500;2023-02-11T21:31:17;102206.97;;;8.59;100.00
15529;BME280;7866;52.280;9.500;2023-02-11T21:36:20;102211.47;;;8.59;100.00
15529;BME280;7866;52.280;9.500;2023-02-11T21:41:24;102217.66;;;8.59;100.00
15529;BME280;7866;52.280;9.500;2023-02-11T21:46:26;102240.72;;;8.60;100.00
15529;BME280;7866;52.280;9.500;2023-02-11T21:51:28;102256.66;;;8.62;100.00
15529;BME280;7866;52.280;9.500;2023-02-11T21:56:32;102257.72;;;8.59;100.00
15529;BME280;7866;52.280;9.500;2023-02-11T22:01:34;102262.28;;;8.57;100.00
15529;BME280;7866;52.280;9.500;2023-02-11T22:06:36;102260.81;;;8.53;100.00
15529;BME280;7866;52.280;9.500;2023-02-11T22:11:39;102259.63;;;8.57;100.00
15529;BME280;7866;52.280;9.500;2023-02-11T22:16:43;102264.97;;;8.57;100.00
15529;BME280;7866;52.280;9.500;2023-02-11T22:21:45;102276.63;;;8.56;100.00
15529;BME280;7866;52.280;9.500;2023-02-11T22:26:48;102275.03;;;8.54;100.00
15529;BME280;7866;52.280;9.500;2023-02-11T22:31:49;102282.06;;;8.55;100.00
15529;BME280;7866;52.280;9.500;2023-02-11T22:36:51;102286.25;;;8.59;100.00
15529;BME280;7866;52.280;9.500;2023-02-11T22:41:54;102299.91;;;8.54;100.00
15529;BME280;7866;52.280;9.500;2023-02-11T22:46:56;102301.75;;;8.54;100.00
15529;BME280;7866;52.280;9.500;2023-02-11T22:51:58;102302.91;;;8.50;100.00
15529;BME280;7866;52.280;9.500;2023-02-11T22:57:01;102304.69;;;8.49;100.00
15529;BME280;7866;52.280;9.500;2023-02-11T23:02:02;102318.81;;;8.51;100.00
15529;BME280;7866;52.280;9.500;2023-02-11T23:07:04;102315.09;;;8.54;100.00
15529;BME280;7866;52.280;9.500;2023-02-11T23:12:07;102317.84;;;8.52;100.00
15529;BME280;7866;52.280;9.500;2023-02-11T23:17:09;102319.34;;;8.56;100.00
15529;BME280;7866;52.280;9.500;2023-02-11T23:22:10;102321.81;;;8.59;100.00
15529;BME280;7866;52.280;9.500;2023-02-11T23:27:13;102321.47;;;8.64;99.90
15529;BME280;7866;52.280;9.500;2023-02-11T23:32:15;102329.38;;;8.66;99.16
15529;BME280;7866;52.280;9.500;2023-02-11T23:37:18;102327.47;;;8.68;99.09
15529;BME280;7866;52.280;9.500;2023-02-11T23:42:21;102332.69;;;8.69;98.58
15529;BME280;7866;52.280;9.500;2023-02-11T23:47:22;102335.47;;;8.68;98.07
15529;BME280;7866;52.280;9.500;2023-02-11T23:52:24;102332.03;;;8.66;98.41
15529;BME280;7866;52.280;9.500;2023-02-11T23:57:27;102350.34;;;8.59;98.47
